Terminal Aerodrome Forecast
Issued by NWS

Home | Current Version | Previous Version | Text Only | Print | Product List | Glossary Off
Versions: 1 2 3 4 5 6 7 8 9 10 11 12 13 14 15 16

000
FTUS43 KMPX 230542
TAFRWF
TAF
KRWF 230542Z 2306/2406 21016KT P6SM BKN100
     FM231400 21012KT P6SM SCT070 BKN100
     FM231900 30010KT P6SM SCT100=

USA.gov is the U.S. government's official web portal to all federal, state and local government web resources and services.